createdAt,value
2023-01-30T00:00:32.096Z,-0.51
2023-01-30T00:01:32.051Z,-0.52
2023-01-30T00:02:32.058Z,-0.51
2023-01-30T00:03:32.580Z,-0.52
2023-01-30T00:04:32.077Z,-0.54
2023-01-30T00:05:32.731Z,-0.54
2023-01-30T00:06:32.026Z,-0.52
2023-01-30T00:07:32.016Z,-0.52
2023-01-30T00:08:32.756Z,-0.51
2023-01-30T00:09:31.964Z,-0.49
2023-01-30T00:10:32.058Z,-0.49
2023-01-30T00:11:31.946Z,-0.49
2023-01-30T00:12:32.968Z,-0.49
2023-01-30T00:13:31.910Z,-0.47
2023-01-30T00:14:31.945Z,-0.44
2023-01-30T00:15:31.981Z,-0.44
2023-01-30T00:16:31.930Z,-0.43
2023-01-30T00:17:32.611Z,-0.43
2023-01-30T00:18:31.906Z,-0.42
2023-01-30T00:19:31.866Z,-0.40
2023-01-30T00:20:31.842Z,-0.40
2023-01-30T00:21:31.833Z,-0.39
2023-01-30T00:22:31.859Z,-0.39
2023-01-30T00:23:31.811Z,-0.39
2023-01-30T00:24:31.987Z,-0.37
2023-01-30T00:25:31.969Z,-0.37
2023-01-30T00:26:31.830Z,-0.34
2023-01-30T00:27:31.755Z,-0.34
2023-01-30T00:28:31.774Z,-0.31
2023-01-30T00:29:32.479Z,-0.33
2023-01-30T00:30:31.819Z,-0.31
2023-01-30T00:31:31.792Z,-0.29
2023-01-30T00:32:31.703Z,-0.28
2023-01-30T00:33:31.675Z,-0.26
2023-01-30T00:34:31.695Z,-0.28
2023-01-30T00:35:31.661Z,-0.26
2023-01-30T00:36:31.669Z,-0.26
2023-01-30T00:37:31.638Z,-0.23
2023-01-30T00:38:31.663Z,-0.25
2023-01-30T00:39:31.624Z,-0.25
2023-01-30T00:40:31.653Z,-0.23
2023-01-30T00:41:31.644Z,-0.25
2023-01-30T00:42:31.607Z,-0.23
2023-01-30T00:43:31.567Z,-0.22
2023-01-30T00:44:31.681Z,-0.21
2023-01-30T00:45:31.570Z,-0.21
2023-01-30T00:46:31.569Z,-0.19
2023-01-30T00:47:31.600Z,-0.19
2023-01-30T00:48:31.870Z,-0.18
2023-01-30T00:49:31.969Z,-0.18
2023-01-30T00:50:31.531Z,-0.16
2023-01-30T00:51:31.539Z,-0.15
2023-01-30T00:52:31.490Z,-0.15
2023-01-30T00:53:31.515Z,-0.14
2023-01-30T00:54:31.484Z,-0.11
2023-01-30T00:55:31.462Z,-0.10
2023-01-30T00:56:31.472Z,-0.08
2023-01-30T00:57:31.408Z,-0.08
2023-01-30T00:58:31.468Z,-0.08
2023-01-30T00:59:31.419Z,-0.08
2023-01-30T01:00:31.410Z,-0.07
2023-01-30T01:01:31.390Z,-0.07
2023-01-30T01:02:31.378Z,-0.04
2023-01-30T01:03:31.357Z,-0.04
2023-01-30T01:04:31.885Z,-0.04
2023-01-30T01:05:31.346Z,-0.03
2023-01-30T01:06:31.335Z,-0.03
2023-01-30T01:07:31.302Z,-0.03
2023-01-30T01:08:31.343Z,-0.01
2023-01-30T01:09:32.278Z,0.00
2023-01-30T01:10:31.316Z,0.02
2023-01-30T01:11:31.335Z,0.02
2023-01-30T01:12:31.354Z,0.03
2023-01-30T01:13:31.249Z,0.04
2023-01-30T01:14:31.298Z,0.04
2023-01-30T01:15:31.224Z,0.08
2023-01-30T01:16:31.372Z,0.08
2023-01-30T01:17:31.214Z,0.08
2023-01-30T01:18:31.203Z,0.10
2023-01-30T01:19:31.198Z,0.10
2023-01-30T01:20:31.218Z,0.13
2023-01-30T01:21:31.208Z,0.14
2023-01-30T01:22:31.160Z,0.14
2023-01-30T01:23:31.204Z,0.15
2023-01-30T01:24:31.142Z,0.15
2023-01-30T01:25:31.110Z,0.15
2023-01-30T01:26:31.152Z,0.15
2023-01-30T01:27:31.078Z,0.15
2023-01-30T01:28:31.087Z,0.18
2023-01-30T01:29:31.134Z,0.18
2023-01-30T01:30:31.086Z,0.21
2023-01-30T01:31:32.033Z,0.21
2023-01-30T01:32:31.049Z,0.23
2023-01-30T01:33:31.011Z,0.26
2023-01-30T01:34:31.053Z,0.24
2023-01-30T01:35:31.056Z,0.26
2023-01-30T01:37:31.967Z,0.28
2023-01-30T01:38:30.958Z,0.28
2023-01-30T01:39:31.638Z,0.31
2023-01-30T01:40:30.934Z,0.29
2023-01-30T01:41:30.960Z,0.31
2023-01-30T01:42:30.982Z,0.31
2023-01-30T01:43:30.938Z,0.31
2023-01-30T01:44:30.898Z,0.31
2023-01-30T01:45:30.959Z,0.32
2023-01-30T01:46:30.885Z,0.32
2023-01-30T01:47:30.896Z,0.33
2023-01-30T01:48:30.847Z,0.35
2023-01-30T01:49:31.262Z,0.35
2023-01-30T01:50:31.634Z,0.36
2023-01-30T01:51:30.882Z,0.38
2023-01-30T01:52:30.854Z,0.36
2023-01-30T01:53:30.862Z,0.38
2023-01-30T01:54:30.788Z,0.41
2023-01-30T01:55:30.850Z,0.41
2023-01-30T01:56:30.744Z,0.41
2023-01-30T01:57:30.802Z,0.42
2023-01-30T01:58:30.720Z,0.44
2023-01-30T01:59:30.775Z,0.46
2023-01-30T02:00:30.703Z,0.46
2023-01-30T02:01:30.763Z,0.47
2023-01-30T02:02:30.707Z,0.47
2023-01-30T02:03:30.706Z,0.47
2023-01-30T02:04:30.671Z,0.47
2023-01-30T02:05:30.676Z,0.49
2023-01-30T02:06:30.657Z,0.49
2023-01-30T02:07:30.658Z,0.50
2023-01-30T02:08:30.666Z,0.50
2023-01-30T02:09:30.619Z,0.50
2023-01-30T02:10:30.599Z,0.50
2023-01-30T02:11:30.828Z,0.53
2023-01-30T02:12:30.630Z,0.51
2023-01-30T02:13:30.582Z,0.53
2023-01-30T02:14:30.551Z,0.55
2023-01-30T02:15:30.569Z,0.55
2023-01-30T02:16:30.568Z,0.57
2023-01-30T02:17:30.579Z,0.57
2023-01-30T02:18:30.574Z,0.57
2023-01-30T02:19:30.512Z,0.58
2023-01-30T02:20:30.499Z,0.58
2023-01-30T02:21:30.587Z,0.61
2023-01-30T02:22:30.460Z,0.61
2023-01-30T02:23:30.502Z,0.65
2023-01-30T02:24:30.449Z,0.62
2023-01-30T02:25:30.460Z,0.65
2023-01-30T02:26:30.515Z,0.62
2023-01-30T02:27:30.436Z,0.62
2023-01-30T02:28:30.399Z,0.65
2023-01-30T02:29:30.422Z,0.66
2023-01-30T02:30:30.462Z,0.66
2023-01-30T02:31:30.461Z,0.65
2023-01-30T02:32:30.387Z,0.66
2023-01-30T02:33:30.364Z,0.68
2023-01-30T02:34:30.952Z,0.66
2023-01-30T02:35:30.338Z,0.66
2023-01-30T02:36:30.336Z,0.66
2023-01-30T02:37:30.346Z,0.66
2023-01-30T02:38:30.276Z,0.68
2023-01-30T02:39:30.306Z,0.66
2023-01-30T02:40:30.249Z,0.68
2023-01-30T02:41:30.295Z,0.69
2023-01-30T02:42:30.241Z,0.68
2023-01-30T02:43:30.268Z,0.69
2023-01-30T02:44:30.230Z,0.68
2023-01-30T02:45:30.269Z,0.69
2023-01-30T02:46:30.185Z,0.69
2023-01-30T02:47:30.231Z,0.69
2023-01-30T02:48:30.178Z,0.70
2023-01-30T02:49:30.345Z,0.70
2023-01-30T02:50:30.193Z,0.70
2023-01-30T02:51:30.941Z,0.70
2023-01-30T02:52:30.171Z,0.72
2023-01-30T02:53:31.004Z,0.72
2023-01-30T02:54:30.163Z,0.70
2023-01-30T02:55:30.157Z,0.72
2023-01-30T02:56:30.931Z,0.72
2023-01-30T02:57:30.110Z,0.72
2023-01-30T02:58:30.110Z,0.70
2023-01-30T02:59:30.070Z,0.70
2023-01-30T03:00:30.044Z,0.69
2023-01-30T03:01:30.163Z,0.69
2023-01-30T03:02:30.042Z,0.70
2023-01-30T03:03:30.040Z,0.70
2023-01-30T03:04:29.986Z,0.70
2023-01-30T03:05:30.009Z,0.70
2023-01-30T03:06:29.977Z,0.70
2023-01-30T03:07:29.979Z,0.70
2023-01-30T03:08:29.946Z,0.72
2023-01-30T03:09:30.068Z,0.73
2023-01-30T03:10:29.981Z,0.73
2023-01-30T03:11:29.983Z,0.75
2023-01-30T03:12:29.900Z,0.75
2023-01-30T03:13:29.930Z,0.73
2023-01-30T03:14:29.887Z,0.76
2023-01-30T03:15:29.913Z,0.76
2023-01-30T03:16:29.850Z,0.76
2023-01-30T03:17:29.895Z,0.76
2023-01-30T03:18:29.837Z,0.79
2023-01-30T03:19:29.850Z,0.79
2023-01-30T03:20:29.810Z,0.79
2023-01-30T03:21:29.865Z,0.79
2023-01-30T03:22:29.791Z,0.80
2023-01-30T03:23:29.802Z,0.80
2023-01-30T03:24:29.848Z,0.80
2023-01-30T03:25:29.807Z,0.83
2023-01-30T03:26:29.812Z,0.83
2023-01-30T03:27:29.801Z,0.84
2023-01-30T03:28:29.723Z,0.84
2023-01-30T03:29:29.808Z,0.86
2023-01-30T03:30:29.706Z,0.84
2023-01-30T03:31:29.844Z,0.86
2023-01-30T03:32:30.554Z,0.86
2023-01-30T03:33:30.449Z,0.84
2023-01-30T03:34:29.695Z,0.86
2023-01-30T03:35:29.692Z,0.86
2023-01-30T03:36:29.693Z,0.84
2023-01-30T03:37:29.642Z,0.84
2023-01-30T03:38:29.605Z,0.86
2023-01-30T03:39:29.665Z,0.84
2023-01-30T03:40:29.579Z,0.84
2023-01-30T03:41:29.624Z,0.84
2023-01-30T03:42:29.591Z,0.86
2023-01-30T03:43:29.567Z,0.84
2023-01-30T03:44:29.589Z,0.83
2023-01-30T03:45:29.548Z,0.80
2023-01-30T03:46:29.559Z,0.84
2023-01-30T03:47:29.525Z,0.84
2023-01-30T03:48:29.497Z,0.83
2023-01-30T03:49:29.558Z,0.84
2023-01-30T03:50:29.467Z,0.84
2023-01-30T03:51:29.491Z,0.84
2023-01-30T03:52:29.504Z,0.86
2023-01-30T03:53:29.486Z,0.84
2023-01-30T03:54:29.465Z,0.86
2023-01-30T03:55:29.467Z,0.86
2023-01-30T03:56:29.404Z,0.86
2023-01-30T03:57:29.484Z,0.87
2023-01-30T03:58:29.382Z,0.87
2023-01-30T03:59:29.399Z,0.87
2023-01-30T04:00:29.366Z,0.87
2023-01-30T04:01:29.396Z,0.87
2023-01-30T04:02:29.501Z,0.88
2023-01-30T04:03:29.354Z,0.88
2023-01-30T04:04:29.322Z,0.90
2023-01-30T04:05:29.333Z,0.88
2023-01-30T04:06:29.297Z,0.88
2023-01-30T04:07:29.322Z,0.90
2023-01-30T04:08:29.262Z,0.91
2023-01-30T04:09:29.276Z,0.90
2023-01-30T04:10:29.231Z,0.91
2023-01-30T04:11:29.267Z,0.91
2023-01-30T04:12:29.234Z,0.90
2023-01-30T04:13:30.203Z,0.93
2023-01-30T04:14:29.467Z,0.91
2023-01-30T04:15:29.207Z,0.91
2023-01-30T04:16:29.198Z,0.94
2023-01-30T04:17:29.194Z,0.94
2023-01-30T04:18:29.181Z,0.93
2023-01-30T04:19:29.171Z,0.96
2023-01-30T04:20:29.123Z,0.96
2023-01-30T04:21:29.146Z,0.96
2023-01-30T04:22:29.117Z,0.97
2023-01-30T04:23:29.212Z,0.97
2023-01-30T04:24:29.092Z,0.97
2023-01-30T04:25:29.101Z,0.98
2023-01-30T04:26:29.103Z,0.97
2023-01-30T04:27:29.082Z,0.98
2023-01-30T04:28:29.049Z,1.00
2023-01-30T04:29:29.140Z,1.02
2023-01-30T04:30:29.054Z,1.02
2023-01-30T04:31:29.112Z,1.04
2023-01-30T04:32:29.002Z,1.04
2023-01-30T04:33:29.028Z,1.06
2023-01-30T04:34:29.045Z,1.08
2023-01-30T04:35:28.992Z,1.09
2023-01-30T04:36:29.759Z,1.11
2023-01-30T04:37:28.991Z,1.12
2023-01-30T04:38:28.931Z,1.15
2023-01-30T04:39:28.955Z,1.14
2023-01-30T04:40:28.927Z,1.16
2023-01-30T04:41:28.923Z,1.18
2023-01-30T04:42:28.965Z,1.20
2023-01-30T04:43:28.892Z,1.22
2023-01-30T04:44:28.858Z,1.22
2023-01-30T04:45:30.181Z,1.22
2023-01-30T04:46:28.837Z,1.23
2023-01-30T04:47:28.984Z,1.27
2023-01-30T04:48:28.823Z,1.29
2023-01-30T04:49:28.837Z,1.27
2023-01-30T04:50:28.796Z,1.32
2023-01-30T04:51:28.844Z,1.34
2023-01-30T04:52:28.772Z,1.36
2023-01-30T04:53:28.856Z,1.37
2023-01-30T04:54:28.758Z,1.37
2023-01-30T04:55:28.760Z,1.36
2023-01-30T04:56:28.739Z,1.36
2023-01-30T04:57:28.761Z,1.36
2023-01-30T04:58:28.724Z,1.36
2023-01-30T04:59:28.764Z,1.36
2023-01-30T05:00:28.746Z,1.36
2023-01-30T05:01:28.693Z,1.36
2023-01-30T05:02:28.663Z,1.37
2023-01-30T05:03:28.687Z,1.41
2023-01-30T05:04:29.009Z,1.41
2023-01-30T05:05:28.649Z,1.41
2023-01-30T05:06:28.615Z,1.42
2023-01-30T05:07:28.676Z,1.44
2023-01-30T05:08:28.595Z,1.44
2023-01-30T05:09:28.599Z,1.42
2023-01-30T05:10:28.570Z,1.42
2023-01-30T05:11:28.577Z,1.44
2023-01-30T05:12:28.621Z,1.44
2023-01-30T05:13:28.554Z,1.47
2023-01-30T05:14:29.455Z,1.48
2023-01-30T05:15:28.975Z,1.48
2023-01-30T05:16:28.499Z,1.50
2023-01-30T05:17:28.521Z,1.51
2023-01-30T05:18:28.497Z,1.51
2023-01-30T05:19:28.494Z,1.50
2023-01-30T05:20:28.450Z,1.51
2023-01-30T05:21:28.479Z,1.51
2023-01-30T05:22:28.427Z,1.52
2023-01-30T05:23:28.504Z,1.54
2023-01-30T05:24:28.428Z,1.52
2023-01-30T05:25:28.514Z,1.52
2023-01-30T05:26:28.413Z,1.54
2023-01-30T05:27:28.394Z,1.54
2023-01-30T05:28:28.415Z,1.52
2023-01-30T05:29:29.274Z,1.54
2023-01-30T05:30:28.435Z,1.54
2023-01-30T05:31:28.379Z,1.55
2023-01-30T05:32:28.322Z,1.58
2023-01-30T05:33:28.323Z,1.55
2023-01-30T05:34:28.309Z,1.58
2023-01-30T05:35:28.355Z,1.58
2023-01-30T05:36:28.292Z,1.59
2023-01-30T05:37:28.273Z,1.59
2023-01-30T05:38:28.247Z,1.59
2023-01-30T05:39:28.269Z,1.58
2023-01-30T05:40:28.304Z,1.59
2023-01-30T05:41:28.253Z,1.58
2023-01-30T05:42:28.214Z,1.58
2023-01-30T05:43:28.232Z,1.58
2023-01-30T05:44:28.197Z,1.58
2023-01-30T05:45:28.200Z,1.59
2023-01-30T05:46:29.012Z,1.58
2023-01-30T05:47:28.175Z,1.58
2023-01-30T05:48:28.141Z,1.55
2023-01-30T05:49:28.167Z,1.59
2023-01-30T05:50:28.114Z,1.59
2023-01-30T05:51:28.131Z,1.60
2023-01-30T05:52:28.187Z,1.62
2023-01-30T05:53:28.119Z,1.63
2023-01-30T05:54:28.095Z,1.63
2023-01-30T05:55:28.906Z,1.66
2023-01-30T05:56:28.084Z,1.65
2023-01-30T05:57:28.130Z,1.66
2023-01-30T05:58:28.056Z,1.68
2023-01-30T05:59:28.009Z,1.66
2023-01-30T06:00:28.122Z,1.69
2023-01-30T06:01:27.994Z,1.69
2023-01-30T06:02:28.055Z,1.70
2023-01-30T06:03:27.999Z,1.70
2023-01-30T06:04:27.989Z,1.72
2023-01-30T06:05:27.986Z,1.72
2023-01-30T06:06:28.090Z,1.73
2023-01-30T06:07:28.098Z,1.73
2023-01-30T06:08:28.885Z,1.72
2023-01-30T06:09:27.986Z,1.76
2023-01-30T06:10:27.913Z,1.76
2023-01-30T06:11:28.569Z,1.79
2023-01-30T06:12:27.910Z,1.79
2023-01-30T06:13:28.752Z,1.80
2023-01-30T06:14:27.922Z,1.79
2023-01-30T06:15:27.849Z,1.79
2023-01-30T06:16:27.901Z,1.79
2023-01-30T06:17:29.946Z,1.77
2023-01-30T06:18:28.669Z,1.79
2023-01-30T06:19:28.595Z,1.77
2023-01-30T06:20:27.846Z,1.77
2023-01-30T06:21:27.758Z,1.77
2023-01-30T06:22:27.765Z,1.77
2023-01-30T06:23:27.745Z,1.76
2023-01-30T06:24:27.789Z,1.76
2023-01-30T06:25:27.719Z,1.77
2023-01-30T06:26:27.746Z,1.76
2023-01-30T06:27:27.702Z,1.76
2023-01-30T06:28:27.722Z,1.76
2023-01-30T06:29:27.720Z,1.79
2023-01-30T06:30:27.779Z,1.79
2023-01-30T06:31:27.689Z,1.79
2023-01-30T06:32:27.660Z,1.80
2023-01-30T06:33:27.725Z,1.83
2023-01-30T06:34:27.646Z,1.84
2023-01-30T06:35:28.316Z,1.86
2023-01-30T06:36:28.487Z,1.87
2023-01-30T06:37:27.626Z,1.93
2023-01-30T06:38:27.630Z,1.98
2023-01-30T06:39:28.481Z,2.00
2023-01-30T06:40:28.373Z,2.00
2023-01-30T06:41:27.576Z,2.03
2023-01-30T06:42:27.607Z,2.05
2023-01-30T06:43:28.345Z,2.05
2023-01-30T06:44:28.251Z,2.06
2023-01-30T06:45:28.404Z,2.09
2023-01-30T06:46:27.609Z,2.10
2023-01-30T06:47:28.209Z,2.14
2023-01-30T06:48:27.504Z,2.16
2023-01-30T06:49:27.498Z,2.18
2023-01-30T06:50:28.184Z,2.20
2023-01-30T06:51:28.344Z,2.21
2023-01-30T06:52:27.465Z,2.24
2023-01-30T06:53:27.487Z,2.27
2023-01-30T06:54:27.892Z,2.28
2023-01-30T06:55:27.377Z,2.30
2023-01-30T06:56:28.156Z,2.34
2023-01-30T06:57:28.275Z,2.39
2023-01-30T06:58:27.375Z,2.42
2023-01-30T06:59:27.376Z,2.43
2023-01-30T07:00:27.352Z,2.48
2023-01-30T07:01:28.950Z,2.48
2023-01-30T07:02:28.062Z,2.48
2023-01-30T07:03:27.349Z,2.52
2023-01-30T07:04:27.409Z,2.53
2023-01-30T07:05:27.295Z,2.59
2023-01-30T07:06:27.357Z,2.63
2023-01-30T07:07:27.244Z,2.67
2023-01-30T07:08:27.986Z,2.72
2023-01-30T07:09:27.237Z,2.74
2023-01-30T07:10:27.232Z,2.74
2023-01-30T07:11:27.226Z,2.77
2023-01-30T07:12:27.216Z,2.81
2023-01-30T07:13:27.204Z,2.87
2023-01-30T07:14:27.191Z,2.85
2023-01-30T07:15:27.166Z,2.85
2023-01-30T07:16:28.017Z,2.89
2023-01-30T07:17:27.874Z,2.93
2023-01-30T07:18:28.041Z,2.97
2023-01-30T07:19:27.994Z,3.02
2023-01-30T07:20:27.136Z,3.05
2023-01-30T07:21:27.085Z,3.08
2023-01-30T07:22:27.184Z,3.15
2023-01-30T07:23:27.063Z,3.20
2023-01-30T07:24:28.019Z,3.21
2023-01-30T07:25:27.079Z,3.20
2023-01-30T07:26:27.799Z,3.21
2023-01-30T07:27:27.077Z,3.21
2023-01-30T07:28:27.034Z,3.24
2023-01-30T07:29:27.004Z,3.23
2023-01-30T07:30:27.136Z,3.23
2023-01-30T07:31:27.008Z,3.24
2023-01-30T07:32:27.543Z,3.29
2023-01-30T07:33:26.963Z,3.31
2023-01-30T07:34:26.971Z,3.36
2023-01-30T07:35:27.026Z,3.36
2023-01-30T07:36:26.967Z,3.39
2023-01-30T07:37:26.952Z,3.39
2023-01-30T07:38:27.725Z,3.40
2023-01-30T07:39:26.896Z,3.40
2023-01-30T07:40:26.956Z,3.47
2023-01-30T07:41:26.886Z,3.51
2023-01-30T07:42:27.784Z,3.55
2023-01-30T07:43:26.890Z,3.54
2023-01-30T07:44:26.860Z,3.66
2023-01-30T07:45:26.822Z,3.68
2023-01-30T07:46:27.673Z,3.66
2023-01-30T07:47:27.550Z,3.65
2023-01-30T07:48:27.723Z,3.65
2023-01-30T07:49:27.655Z,3.65
2023-01-30T07:50:26.829Z,3.68
2023-01-30T07:51:26.768Z,3.68
2023-01-30T07:52:27.472Z,3.65
2023-01-30T07:53:27.431Z,3.66
2023-01-30T07:54:27.649Z,3.68
2023-01-30T07:55:27.589Z,3.69
2023-01-30T07:56:26.719Z,3.68
2023-01-30T07:57:27.639Z,3.70
2023-01-30T07:58:26.719Z,3.73
2023-01-30T07:59:27.421Z,3.75
2023-01-30T08:00:27.601Z,3.73
2023-01-30T08:01:26.711Z,3.73
2023-01-30T08:02:34.245Z,3.72
2023-01-30T08:03:26.633Z,3.73
2023-01-30T08:04:27.066Z,3.76
2023-01-30T08:05:27.027Z,3.78
2023-01-30T08:06:27.521Z,3.76
2023-01-30T08:07:26.585Z,3.75
2023-01-30T08:08:26.583Z,3.73
2023-01-30T08:09:26.859Z,3.76
2023-01-30T08:10:26.564Z,3.76
2023-01-30T08:11:26.541Z,3.76
2023-01-30T08:12:27.395Z,3.75
2023-01-30T08:13:27.401Z,3.76
2023-01-30T08:14:26.544Z,3.76
2023-01-30T08:15:26.519Z,3.75
2023-01-30T08:16:26.550Z,3.76
2023-01-30T08:17:26.482Z,3.75
2023-01-30T08:18:26.496Z,3.75
2023-01-30T08:19:27.316Z,3.76
2023-01-30T08:20:26.497Z,3.75
2023-01-30T08:21:26.432Z,3.75
2023-01-30T08:22:26.438Z,3.76
2023-01-30T08:23:27.167Z,3.76
2023-01-30T08:24:26.866Z,3.78
2023-01-30T08:25:27.071Z,3.76
2023-01-30T08:26:26.410Z,3.79
2023-01-30T08:27:26.377Z,3.83
2023-01-30T08:28:27.236Z,3.87
2023-01-30T08:29:26.462Z,3.86
2023-01-30T08:30:26.409Z,3.87
2023-01-30T08:31:26.345Z,3.88
2023-01-30T08:32:26.352Z,3.91
2023-01-30T08:33:26.291Z,3.93
2023-01-30T08:34:26.379Z,3.93
2023-01-30T08:35:26.363Z,3.91
2023-01-30T08:36:27.218Z,3.91
2023-01-30T08:37:26.261Z,3.90
2023-01-30T08:38:26.262Z,3.94
2023-01-30T08:39:27.194Z,3.93
2023-01-30T08:40:26.254Z,3.94
2023-01-30T08:41:26.465Z,3.94
2023-01-30T08:42:26.255Z,3.94
2023-01-30T08:43:26.192Z,3.96
2023-01-30T08:44:26.221Z,4.00
2023-01-30T08:45:26.192Z,4.04
2023-01-30T08:46:26.237Z,4.06
2023-01-30T08:47:26.498Z,4.04
2023-01-30T08:48:28.176Z,4.08
2023-01-30T08:49:26.176Z,4.09
2023-01-30T08:50:26.197Z,4.08
2023-01-30T08:51:26.115Z,4.08
2023-01-30T08:52:26.117Z,4.11
2023-01-30T08:53:26.090Z,4.11
2023-01-30T08:54:26.122Z,4.12
2023-01-30T08:55:26.163Z,4.16
2023-01-30T08:56:26.062Z,4.20
2023-01-30T08:57:26.066Z,4.20
2023-01-30T08:58:26.899Z,4.18
2023-01-30T08:59:26.798Z,4.22
2023-01-30T09:00:26.070Z,4.23
2023-01-30T09:01:26.030Z,4.24
2023-01-30T09:02:26.130Z,4.26
2023-01-30T09:03:25.997Z,4.30
2023-01-30T09:04:26.133Z,4.33
2023-01-30T09:05:25.960Z,4.32
2023-01-30T09:06:26.427Z,4.30
2023-01-30T09:07:25.924Z,4.29
2023-01-30T09:08:25.932Z,4.30
2023-01-30T09:09:25.932Z,4.34
2023-01-30T09:10:25.949Z,4.33
2023-01-30T09:11:25.888Z,4.34
2023-01-30T09:12:25.926Z,4.40
2023-01-30T09:13:26.076Z,4.42
2023-01-30T09:14:25.860Z,4.45
2023-01-30T09:15:26.118Z,4.50
2023-01-30T09:16:25.899Z,4.62
2023-01-30T09:17:25.821Z,4.66
2023-01-30T09:18:25.852Z,4.69
2023-01-30T09:19:26.119Z,4.70
2023-01-30T09:20:26.613Z,4.73
2023-01-30T09:21:26.109Z,4.77
2023-01-30T09:22:26.722Z,4.78
2023-01-30T09:23:25.752Z,4.78
2023-01-30T09:24:26.217Z,4.77
2023-01-30T09:25:25.725Z,4.75
2023-01-30T09:26:26.525Z,4.77
2023-01-30T09:27:25.726Z,4.86
2023-01-30T09:28:25.697Z,4.92
2023-01-30T09:29:25.680Z,4.96
2023-01-30T09:30:25.744Z,5.00
2023-01-30T09:31:26.653Z,5.09
2023-01-30T09:32:25.664Z,5.13
2023-01-30T09:33:25.638Z,5.25
2023-01-30T09:34:25.638Z,5.35
2023-01-30T09:35:25.596Z,5.46
2023-01-30T09:36:25.856Z,5.56
2023-01-30T09:37:26.488Z,5.64
2023-01-30T09:38:25.626Z,5.76
2023-01-30T09:39:25.817Z,5.76
2023-01-30T09:40:25.564Z,5.82
2023-01-30T09:41:25.567Z,5.89
2023-01-30T09:42:25.561Z,5.96
2023-01-30T09:43:25.983Z,5.97
2023-01-30T09:44:25.866Z,6.03
2023-01-30T09:45:25.522Z,6.04
2023-01-30T09:46:25.535Z,5.99
2023-01-30T09:47:25.466Z,5.90
2023-01-30T09:48:26.187Z,5.85
2023-01-30T09:49:25.442Z,5.79
2023-01-30T09:50:25.455Z,5.75
2023-01-30T09:51:25.417Z,5.74
2023-01-30T09:52:25.708Z,5.68
2023-01-30T09:53:25.812Z,5.61
2023-01-30T09:54:25.435Z,5.58
2023-01-30T09:55:25.373Z,5.60
2023-01-30T09:56:25.979Z,5.64
2023-01-30T09:57:25.349Z,5.63
2023-01-30T09:58:26.064Z,5.58
2023-01-30T09:59:25.447Z,5.56
2023-01-30T10:00:26.011Z,5.53
2023-01-30T10:01:26.233Z,5.53
2023-01-30T10:02:25.322Z,5.49
2023-01-30T10:03:26.093Z,5.43
2023-01-30T10:04:26.230Z,5.38
2023-01-30T10:05:25.247Z,5.31
2023-01-30T10:06:25.395Z,5.27
2023-01-30T10:07:25.250Z,5.24
2023-01-30T10:08:25.510Z,5.21
2023-01-30T10:09:25.484Z,5.24
2023-01-30T10:10:26.149Z,5.33
2023-01-30T10:11:25.247Z,5.39
2023-01-30T10:12:25.640Z,5.39
2023-01-30T10:13:25.215Z,5.39
2023-01-30T10:14:25.163Z,5.35
2023-01-30T10:15:25.357Z,5.33
2023-01-30T10:16:25.381Z,5.31
2023-01-30T10:17:25.141Z,5.28
2023-01-30T10:18:25.093Z,5.28
2023-01-30T10:19:35.250Z,5.28
2023-01-30T10:20:26.189Z,5.25
2023-01-30T10:21:25.848Z,5.24
2023-01-30T10:22:25.208Z,5.24
2023-01-30T10:23:25.103Z,5.22
2023-01-30T10:24:25.069Z,5.22
2023-01-30T10:25:25.042Z,5.21
2023-01-30T10:26:25.930Z,5.17
2023-01-30T10:27:25.020Z,5.17
2023-01-30T10:28:24.983Z,5.18
2023-01-30T10:29:25.001Z,5.18
2023-01-30T10:30:25.126Z,5.18
2023-01-30T10:31:25.019Z,5.20
2023-01-30T10:32:25.051Z,5.18
2023-01-30T10:33:24.968Z,5.18
2023-01-30T10:34:24.921Z,5.17
2023-01-30T10:35:26.216Z,5.15
2023-01-30T10:36:24.894Z,5.15
2023-01-30T10:37:25.200Z,5.18
2023-01-30T10:38:24.884Z,5.21
2023-01-30T10:39:24.897Z,5.24
2023-01-30T10:40:24.866Z,5.24
2023-01-30T10:41:25.703Z,5.20
2023-01-30T10:42:24.842Z,5.20
2023-01-30T10:43:25.779Z,5.20
2023-01-30T10:44:24.929Z,5.22
2023-01-30T10:45:24.812Z,5.22
2023-01-30T10:46:24.814Z,5.20
2023-01-30T10:47:26.468Z,5.18
2023-01-30T10:48:37.815Z,5.15
2023-01-30T10:49:25.775Z,5.10
2023-01-30T10:50:24.730Z,5.07
2023-01-30T10:51:24.779Z,5.03
2023-01-30T10:52:24.711Z,5.00
2023-01-30T10:53:24.989Z,5.00
2023-01-30T10:54:24.986Z,4.99
2023-01-30T10:55:36.494Z,4.97
2023-01-30T10:56:25.655Z,4.97
2023-01-30T10:57:24.699Z,4.97
2023-01-30T10:58:24.639Z,4.99
2023-01-30T10:59:24.860Z,4.99
2023-01-30T11:00:24.663Z,4.99
2023-01-30T11:01:24.666Z,5.00
2023-01-30T11:02:24.647Z,5.02
2023-01-30T11:03:24.961Z,5.03
2023-01-30T11:04:25.059Z,5.03
2023-01-30T11:05:24.597Z,5.04
2023-01-30T11:06:24.546Z,5.03
2023-01-30T11:07:24.551Z,5.03
2023-01-30T11:08:24.509Z,5.03
2023-01-30T11:09:24.744Z,5.04
2023-01-30T11:10:24.534Z,5.03
2023-01-30T11:11:24.557Z,5.00
2023-01-30T11:12:24.515Z,5.00
2023-01-30T11:13:24.488Z,5.00
2023-01-30T11:14:24.497Z,4.99
2023-01-30T11:15:24.545Z,4.94
2023-01-30T11:16:24.515Z,4.94
2023-01-30T11:17:24.459Z,4.91
2023-01-30T11:19:17.321Z,4.91
2023-01-30T11:19:25.431Z,4.89
2023-01-30T11:20:24.403Z,4.89
2023-01-30T11:21:26.984Z,4.91
2023-01-30T11:22:25.377Z,4.91
2023-01-30T11:23:25.245Z,4.88
2023-01-30T11:24:24.359Z,4.85
2023-01-30T11:25:24.365Z,4.85
2023-01-30T11:26:29.471Z,4.85
2023-01-30T11:27:25.452Z,4.85
2023-01-30T11:28:24.629Z,4.88
2023-01-30T11:29:24.324Z,4.85
2023-01-30T11:30:24.415Z,4.84
2023-01-30T11:31:40.000Z,4.88
2023-01-30T11:32:25.372Z,4.92
2023-01-30T11:33:24.346Z,4.97
2023-01-30T11:34:24.246Z,4.99
2023-01-30T11:35:24.377Z,5.02
2023-01-30T11:36:24.207Z,5.02
2023-01-30T11:37:24.366Z,5.00
2023-01-30T11:38:24.203Z,4.97
2023-01-30T11:39:24.226Z,4.96
2023-01-30T11:40:24.191Z,4.97
2023-01-30T11:41:24.197Z,4.94
2023-01-30T11:42:24.958Z,4.91
2023-01-30T11:43:24.165Z,4.88
2023-01-30T11:44:24.113Z,4.85
2023-01-30T11:45:24.154Z,4.80
2023-01-30T11:46:24.094Z,4.77
2023-01-30T11:47:24.149Z,4.73
2023-01-30T11:49:02.732Z,4.67
2023-01-30T11:49:46.040Z,4.69
2023-01-30T11:50:28.722Z,4.67
2023-01-30T11:51:25.105Z,4.67
2023-01-30T11:52:24.082Z,4.65
2023-01-30T11:53:24.067Z,4.67
2023-01-30T11:54:24.010Z,4.67
2023-01-30T11:55:24.045Z,4.69
2023-01-30T11:56:23.994Z,4.65
2023-01-30T11:57:23.986Z,4.65
2023-01-30T11:58:23.993Z,4.66
2023-01-30T11:59:23.996Z,4.65
2023-01-30T12:00:23.996Z,4.66
2023-01-30T12:01:23.946Z,4.65
2023-01-30T12:02:23.968Z,4.65
2023-01-30T12:03:24.160Z,4.66
2023-01-30T12:04:23.945Z,4.67
2023-01-30T12:05:23.950Z,4.67
2023-01-30T12:06:23.858Z,4.69
2023-01-30T12:07:23.888Z,4.66
2023-01-30T12:08:39.382Z,4.67
2023-01-30T12:09:24.843Z,4.69
2023-01-30T12:10:23.823Z,4.69
2023-01-30T12:11:23.846Z,4.69
2023-01-30T12:12:23.809Z,4.69
2023-01-30T12:13:23.802Z,4.72
2023-01-30T12:14:23.787Z,4.75
2023-01-30T12:15:23.814Z,4.82
2023-01-30T12:16:23.784Z,4.86
2023-01-30T12:17:23.760Z,4.88
2023-01-30T12:18:23.823Z,4.88
2023-01-30T12:19:23.763Z,4.86
2023-01-30T12:20:23.711Z,4.88
2023-01-30T12:21:23.698Z,4.86
2023-01-30T12:22:23.688Z,4.85
2023-01-30T12:23:24.073Z,4.85
2023-01-30T12:24:24.517Z,4.85
2023-01-30T12:25:24.434Z,4.82
2023-01-30T12:26:23.681Z,4.84
2023-01-30T12:27:23.649Z,4.82
2023-01-30T12:28:23.632Z,4.82
2023-01-30T12:29:23.615Z,4.82
2023-01-30T12:30:23.593Z,4.82
2023-01-30T12:31:23.585Z,4.84
2023-01-30T12:32:23.599Z,4.85
2023-01-30T12:33:23.636Z,4.88
2023-01-30T12:34:27.067Z,4.91
2023-01-30T12:35:23.590Z,4.94
2023-01-30T12:36:23.530Z,4.97
2023-01-30T12:37:23.564Z,4.99
2023-01-30T12:38:23.851Z,5.03
2023-01-30T12:39:23.512Z,5.06
2023-01-30T12:40:23.980Z,5.03
2023-01-30T12:41:23.504Z,5.03
2023-01-30T12:42:25.632Z,5.04
2023-01-30T12:43:23.469Z,5.07
2023-01-30T12:44:23.450Z,5.07
2023-01-30T12:45:23.459Z,5.13
2023-01-30T12:46:23.480Z,5.12
2023-01-30T12:47:23.431Z,5.04
2023-01-30T12:48:23.428Z,5.07
2023-01-30T12:49:23.395Z,5.04
2023-01-30T12:50:23.398Z,5.06
2023-01-30T12:51:23.405Z,5.03
2023-01-30T12:52:23.347Z,5.00
2023-01-30T12:53:23.378Z,4.99
2023-01-30T12:54:23.361Z,4.96
2023-01-30T12:55:23.351Z,4.94
2023-01-30T12:56:23.300Z,4.88
2023-01-30T12:57:23.314Z,4.84
2023-01-30T12:58:23.274Z,4.78
2023-01-30T12:59:23.303Z,4.72
2023-01-30T13:00:23.229Z,4.66
2023-01-30T13:01:23.287Z,4.66
2023-01-30T13:02:25.567Z,4.72
2023-01-30T13:03:23.251Z,4.72
2023-01-30T13:04:23.217Z,4.70
2023-01-30T13:05:23.307Z,4.66
2023-01-30T13:06:23.181Z,4.66
2023-01-30T13:07:23.206Z,4.70
2023-01-30T13:08:23.152Z,4.82
2023-01-30T13:09:23.171Z,4.88
2023-01-30T13:10:23.734Z,4.99
2023-01-30T13:11:23.171Z,5.04
2023-01-30T13:12:23.278Z,5.15
2023-01-30T13:13:23.109Z,5.25
2023-01-30T13:14:23.091Z,5.31
2023-01-30T13:15:23.092Z,5.33
2023-01-30T13:16:23.157Z,5.31
2023-01-30T13:17:23.093Z,5.25